Forside
METAR-TAF:

METAR-TAF

Lufthavne :

Larnaca Internationale Lufthavn

Larnaca, Cypern

Breddekreds: 34-53N, længdekreds: 033-38E, højde: 2 m

Aktuelle vejr

Denne rapport blev lavet for 17 minutter siden, kl. 12:30 UTC
Vind 5 kt fra øst, varierende mellem østnordøst og østsydøst
Temperatur 18°C
Fugtighed 59%
Tryk 1017 hPa
Sigt 10 km eller mere
Nogle få skyer i en højde af 3000 ft, Optårnet Cumulus.

METAR: LCLK 221230Z 09005KT 060V120 9999 FEW030TCU 18/10 Q1017 NOSIG

Tid: 14:47 (12:47 UTC)

Vejrudsigter

Denne rapport blev lavet for 1 time og 17 minutter siden, kl. 11:30 UTC
Foreløbig gælder fra 22 på 12 UTC til 23 på 12 UTC
Vind 12 kt fra østnordøst
Sigt 10 km eller mere
Nogle få skyer i en højde af 3000 ft
ændring
fra 22 på 17 UTC til 22 på 20 UTC
Vind 7 kt fra nord
ændring
fra 23 på 10 UTC til 23 på 12 UTC
Vind 14 kt fra øst

TAF: LCLK 221130Z 2212/2312 07012KT 9999 FEW030 BECMG 2217/2220 35007KT BECMG 2310/2312 09014KT

Vejrobservationer og prognoser fra mere end 4000 lufthavne (METAR og TAF).

De gule og røde prikker repræsenterer de meteorologiske stationer.

Flyt musen over at se navnet på stationen.

Så klik over at se vejr observationer og prognoser.

At skifte det kort: Klik på de grønne knapper med et sort kors for at zoome ind; på den grønne knap med en bindestreg for at zoome ud; eller på de grønne pile for tilstødende kort.


METAR-TAF: